createdAt,value
2022-11-09T00:02:59.020Z,3.40
2022-11-09T00:08:01.748Z,3.00
2022-11-09T00:13:04.681Z,4.00
2022-11-09T00:18:11.705Z,3.40
2022-11-09T00:23:14.312Z,3.00
2022-11-09T00:28:17.020Z,3.00
2022-11-09T00:33:21.230Z,3.20
2022-11-09T00:38:24.079Z,2.00
2022-11-09T00:43:26.733Z,4.00
2022-11-09T00:48:30.865Z,5.40
2022-11-09T00:53:33.532Z,4.00
2022-11-09T00:58:37.621Z,2.20
2022-11-09T01:03:41.899Z,3.00
2022-11-09T01:08:44.729Z,6.60
2022-11-09T01:13:47.433Z,3.00
2022-11-09T01:18:55.559Z,3.00
2022-11-09T01:24:01.590Z,4.20
2022-11-09T01:29:04.267Z,4.60
2022-11-09T01:34:10.518Z,4.40
2022-11-09T01:39:13.132Z,2.60
2022-11-09T01:44:16.900Z,3.80
2022-11-09T01:49:37.564Z,3.00
2022-11-09T01:54:41.288Z,3.00
2022-11-09T01:59:45.909Z,3.00
2022-11-09T02:04:51.169Z,4.80
2022-11-09T02:09:56.735Z,3.00
2022-11-09T02:15:01.183Z,5.20
2022-11-09T02:20:09.251Z,3.00
2022-11-09T02:25:11.918Z,2.60
2022-11-09T02:30:14.979Z,3.80
2022-11-09T02:35:21.275Z,2.80
2022-11-09T02:40:25.464Z,2.80
2022-11-09T02:45:29.442Z,3.00
2022-11-09T02:50:33.515Z,2.00
2022-11-09T02:55:36.238Z,2.80
2022-11-09T03:00:38.953Z,4.40
2022-11-09T03:05:44.778Z,5.60
2022-11-09T03:10:49.197Z,3.40
2022-11-09T03:15:52.322Z,3.40
2022-11-09T03:20:56.443Z,3.00
2022-11-09T03:25:59.132Z,3.00
2022-11-09T03:31:02.073Z,2.60
2022-11-09T03:36:07.602Z,2.60
2022-11-09T03:41:10.330Z,2.00
2022-11-09T03:46:13.308Z,3.00
2022-11-09T03:51:18.517Z,3.40
2022-11-09T03:56:21.133Z,3.40
2022-11-09T04:01:23.816Z,2.80
2022-11-09T04:06:27.930Z,3.20
2022-11-09T04:11:30.738Z,5.00
2022-11-09T04:16:33.355Z,2.60
2022-11-09T04:21:37.351Z,2.40
2022-11-09T04:26:39.922Z,5.20
2022-11-09T04:31:42.580Z,3.00
2022-11-09T04:36:46.732Z,1.40
2022-11-09T04:41:49.348Z,2.20
2022-11-09T04:46:52.002Z,2.80
2022-11-09T04:51:55.964Z,3.00
2022-11-09T04:56:58.552Z,3.00
2022-11-09T05:02:01.407Z,2.20
2022-11-09T05:07:05.447Z,2.00
2022-11-09T05:12:08.937Z,2.40
2022-11-09T05:17:11.545Z,3.00
2022-11-09T05:22:33.315Z,2.60
2022-11-09T05:27:36.119Z,2.00
2022-11-09T05:32:39.941Z,2.00
2022-11-09T05:37:43.967Z,3.00
2022-11-09T05:42:46.949Z,2.40
2022-11-09T05:47:49.612Z,2.80
2022-11-09T05:52:54.426Z,3.00
2022-11-09T05:57:57.123Z,2.00
2022-11-09T06:03:03.154Z,2.40
2022-11-09T06:08:10.763Z,2.20
2022-11-09T06:13:13.469Z,2.60
2022-11-09T06:18:16.047Z,2.80
2022-11-09T06:23:20.438Z,2.40
2022-11-09T06:28:23.381Z,2.00
2022-11-09T06:33:26.217Z,2.00
2022-11-09T06:38:30.292Z,3.00
2022-11-09T06:43:33.194Z,3.00
2022-11-09T06:48:36.056Z,2.00
2022-11-09T06:53:41.345Z,2.00
2022-11-09T06:58:45.006Z,1.20
2022-11-09T07:03:47.707Z,2.00
2022-11-09T07:08:51.755Z,2.00
2022-11-09T07:13:57.405Z,3.00
2022-11-09T07:19:00.575Z,2.00
2022-11-09T07:24:04.878Z,2.20
2022-11-09T07:29:07.720Z,5.00
2022-11-09T07:34:10.329Z,2.20
2022-11-09T07:39:14.282Z,2.00
2022-11-09T07:44:18.363Z,3.00
2022-11-09T07:49:21.186Z,2.60
2022-11-09T07:54:25.761Z,2.60
2022-11-09T07:59:28.433Z,3.00
2022-11-09T08:04:31.053Z,2.20
2022-11-09T08:09:35.334Z,2.00
2022-11-09T08:14:38.010Z,4.60
2022-11-09T08:19:40.643Z,2.00
2022-11-09T08:24:44.601Z,2.80
2022-11-09T08:29:47.294Z,2.40
2022-11-09T08:34:50.007Z,2.40
2022-11-09T08:39:53.964Z,3.00
2022-11-09T08:44:56.596Z,1.60
2022-11-09T08:49:59.191Z,3.00
2022-11-09T08:55:03.483Z,2.00
2022-11-09T09:00:07.422Z,2.00
2022-11-09T09:05:10.272Z,3.00
2022-11-09T09:10:14.307Z,2.00
2022-11-09T09:15:17.035Z,2.20
2022-11-09T09:20:19.893Z,2.40
2022-11-09T09:25:24.705Z,2.00
2022-11-09T09:30:27.335Z,7.20
2022-11-09T09:35:29.972Z,8.20
2022-11-09T09:40:37.885Z,7.20
2022-11-09T09:45:40.538Z,7.80
2022-11-09T09:50:46.654Z,7.00
2022-11-09T09:55:54.316Z,7.40
2022-11-09T10:00:59.566Z,7.20
2022-11-09T10:06:06.333Z,6.80
2022-11-09T10:11:16.392Z,4.60
2022-11-09T10:16:22.198Z,5.20
2022-11-09T10:21:32.926Z,7.00
2022-11-09T10:26:40.915Z,6.00
2022-11-09T10:31:43.878Z,6.00
2022-11-09T10:36:49.162Z,6.20
2022-11-09T10:41:54.756Z,4.60
2022-11-09T10:47:17.147Z,5.00
2022-11-09T10:52:46.173Z,5.00
2022-11-09T10:58:21.501Z,4.20
2022-11-09T11:03:43.299Z,3.00
2022-11-09T11:09:20.870Z,4.60
2022-11-09T11:14:45.113Z,3.00
2022-11-09T11:20:29.218Z,5.00
2022-11-09T11:25:58.968Z,5.00
2022-11-09T11:31:21.796Z,4.60
2022-11-09T11:36:50.589Z,3.00
2022-11-09T11:42:31.926Z,5.00
2022-11-09T11:47:58.531Z,4.60
2022-11-09T11:53:29.135Z,5.20
2022-11-09T11:59:03.910Z,5.00
2022-11-09T12:04:37.534Z,3.40
2022-11-09T12:10:15.452Z,5.00
2022-11-09T12:15:45.709Z,4.60
2022-11-09T12:21:14.726Z,4.00
2022-11-09T12:26:44.999Z,3.80
2022-11-09T12:32:14.614Z,5.00
2022-11-09T12:37:41.971Z,3.80
2022-11-09T12:43:05.272Z,3.00
2022-11-09T12:48:29.166Z,3.00
2022-11-09T12:53:52.200Z,3.00
2022-11-09T12:59:23.575Z,3.00
2022-11-09T13:04:55.521Z,3.00
2022-11-09T13:10:32.229Z,3.00
2022-11-09T13:16:11.327Z,3.00
2022-11-09T13:21:37.534Z,3.00
2022-11-09T13:27:01.366Z,3.00
2022-11-09T13:32:26.185Z,5.00
2022-11-09T13:37:49.351Z,3.00
2022-11-09T13:43:24.050Z,3.00
2022-11-09T13:48:45.414Z,3.40
2022-11-09T13:54:06.735Z,2.60
2022-11-09T13:59:30.907Z,2.00
2022-11-09T14:04:52.103Z,3.00
2022-11-09T14:10:16.743Z,2.00
2022-11-09T14:15:43.671Z,3.00
2022-11-09T14:21:18.640Z,3.00
2022-11-09T14:26:39.762Z,3.00
2022-11-09T14:32:03.269Z,3.00
2022-11-09T14:37:24.534Z,3.00
2022-11-09T14:42:49.164Z,3.00
2022-11-09T14:48:17.042Z,2.80
2022-11-09T14:53:39.186Z,2.00
2022-11-09T14:59:02.113Z,2.00
2022-11-09T15:04:26.912Z,4.60
2022-11-09T15:09:52.434Z,2.20
2022-11-09T15:15:19.552Z,2.00
2022-11-09T15:20:42.070Z,2.00
2022-11-09T15:26:03.543Z,3.40
2022-11-09T15:31:27.694Z,2.00
2022-11-09T15:36:55.265Z,2.40
2022-11-09T15:42:16.416Z,5.00
2022-11-09T15:47:38.561Z,5.00
2022-11-09T15:53:01.289Z,2.20
2022-11-09T15:58:23.230Z,3.00
2022-11-09T16:03:44.738Z,2.80
2022-11-09T16:09:07.537Z,4.60
2022-11-09T16:14:32.294Z,2.20
2022-11-09T16:19:54.152Z,3.00
2022-11-09T16:25:16.982Z,4.20
2022-11-09T16:30:41.567Z,2.80
2022-11-09T16:36:07.087Z,2.40
2022-11-09T16:41:30.083Z,3.00
2022-11-09T16:46:52.118Z,3.40
2022-11-09T16:52:13.540Z,3.00
2022-11-09T16:57:36.318Z,14.00
2022-11-09T17:02:57.609Z,7.20
2022-11-09T17:08:19.713Z,7.80
2022-11-09T17:13:42.592Z,7.60
2022-11-09T17:19:06.142Z,8.00
2022-11-09T17:24:27.371Z,11.00
2022-11-09T17:29:50.141Z,10.00
2022-11-09T17:35:11.591Z,9.80
2022-11-09T17:40:32.797Z,7.40
2022-11-09T17:45:55.830Z,7.00
2022-11-09T17:51:17.993Z,6.40
2022-11-09T17:56:39.817Z,6.00
2022-11-09T18:02:02.564Z,7.00
2022-11-09T18:07:25.229Z,6.00
2022-11-09T18:12:46.720Z,6.80
2022-11-09T18:18:09.613Z,6.60
2022-11-09T18:23:31.095Z,5.80
2022-11-09T18:28:52.514Z,6.60
2022-11-09T18:34:15.703Z,6.80
2022-11-09T18:39:36.862Z,3.40
2022-11-09T18:44:58.620Z,5.80
2022-11-09T18:50:21.801Z,5.00
2022-11-09T18:55:43.204Z,6.00
2022-11-09T19:01:07.254Z,6.00
2022-11-09T19:06:29.785Z,3.60
2022-11-09T19:11:51.453Z,6.00
2022-11-09T19:17:13.678Z,3.60
2022-11-09T19:22:36.784Z,5.80
2022-11-09T19:27:58.085Z,6.20
2022-11-09T19:33:19.539Z,4.80
2022-11-09T19:38:44.791Z,4.00
2022-11-09T19:44:07.139Z,3.00
2022-11-09T19:49:28.383Z,4.00
2022-11-09T19:54:50.921Z,4.80
2022-11-09T20:00:13.573Z,4.00
2022-11-09T20:05:35.038Z,3.80
2022-11-09T20:10:57.657Z,3.80
2022-11-09T20:16:19.047Z,4.80
2022-11-09T20:21:41.218Z,6.00
2022-11-09T20:27:03.993Z,4.40
2022-11-09T20:32:25.549Z,3.60
2022-11-09T20:37:46.951Z,3.80
2022-11-09T20:43:09.793Z,2.80
2022-11-09T20:48:52.629Z,6.00
2022-11-09T20:54:12.487Z,6.80
2022-11-09T20:59:35.222Z,4.00
2022-11-09T21:04:56.383Z,3.40
2022-11-09T21:10:18.661Z,6.00
2022-11-09T21:15:41.604Z,3.00
2022-11-09T21:21:07.172Z,3.00
2022-11-09T21:26:45.948Z,3.60
2022-11-09T21:32:08.910Z,3.00
2022-11-09T21:37:30.425Z,3.80
2022-11-09T21:42:52.047Z,3.80
2022-11-09T21:48:14.807Z,3.40
2022-11-09T21:53:37.089Z,3.00
2022-11-09T21:58:58.332Z,4.00
2022-11-09T22:04:21.024Z,3.60
2022-11-09T22:10:08.176Z,3.60
2022-11-09T22:15:41.044Z,3.00
2022-11-09T22:21:04.086Z,3.40
2022-11-09T22:26:25.593Z,3.40
2022-11-09T22:31:47.327Z,3.20
2022-11-09T22:37:09.868Z,3.00
2022-11-09T22:42:34.647Z,4.00
2022-11-09T22:47:56.115Z,2.40
2022-11-09T22:53:19.099Z,4.00
2022-11-09T22:58:40.844Z,4.00
2022-11-09T23:04:02.444Z,3.00
2022-11-09T23:09:25.304Z,2.20
2022-11-09T23:15:05.098Z,2.40
2022-11-09T23:20:29.941Z,2.00
2022-11-09T23:25:56.415Z,3.80
2022-11-09T23:31:19.426Z,3.00
2022-11-09T23:36:40.732Z,2.00
2022-11-09T23:42:03.569Z,3.00
2022-11-09T23:47:24.794Z,3.00
2022-11-09T23:52:46.192Z,4.00
2022-11-09T23:58:08.999Z,2.80
